sensor_id;sensor_type;location;lat;lon;timestamp;P1;durP1;ratioP1;P2;durP2;ratioP2
9479;SDS011;4778;44.510;11.378;2023-02-28T00:00:16;9.00;;;5.47;;
9479;SDS011;4778;44.510;11.378;2023-02-28T00:02:43;10.07;;;6.03;;
9479;SDS011;4778;44.510;11.378;2023-02-28T00:05:10;8.32;;;5.55;;
9479;SDS011;4778;44.510;11.378;2023-02-28T00:07:36;53.17;;;48.88;;
9479;SDS011;4778;44.510;11.378;2023-02-28T00:10:03;9.00;;;6.40;;
9479;SDS011;4778;44.510;11.378;2023-02-28T00:12:31;8.52;;;5.00;;
9479;SDS011;4778;44.510;11.378;2023-02-28T00:14:57;15.05;;;12.85;;
9479;SDS011;4778;44.510;11.378;2023-02-28T00:17:23;9.53;;;6.83;;
9479;SDS011;4778;44.510;11.378;2023-02-28T00:19:49;9.18;;;6.30;;
9479;SDS011;4778;44.510;11.378;2023-02-28T00:22:19;10.35;;;6.93;;
9479;SDS011;4778;44.510;11.378;2023-02-28T00:24:45;11.82;;;6.97;;
9479;SDS011;4778;44.510;11.378;2023-02-28T00:27:12;11.23;;;7.18;;
9479;SDS011;4778;44.510;11.378;2023-02-28T00:29:38;7.95;;;6.40;;
9479;SDS011;4778;44.510;11.378;2023-02-28T00:32:05;10.80;;;6.43;;
9479;SDS011;4778;44.510;11.378;2023-02-28T00:34:31;9.32;;;6.57;;
9479;SDS011;4778;44.510;11.378;2023-02-28T00:37:03;12.33;;;7.17;;
9479;SDS011;4778;44.510;11.378;2023-02-28T00:39:30;10.30;;;6.35;;
9479;SDS011;4778;44.510;11.378;2023-02-28T00:41:57;8.25;;;6.28;;
9479;SDS011;4778;44.510;11.378;2023-02-28T00:44:23;9.10;;;6.57;;
9479;SDS011;4778;44.510;11.378;2023-02-28T00:46:49;7.88;;;5.68;;
9479;SDS011;4778;44.510;11.378;2023-02-28T00:49:16;11.38;;;6.55;;
9479;SDS011;4778;44.510;11.378;2023-02-28T00:51:43;8.90;;;5.78;;
9479;SDS011;4778;44.510;11.378;2023-02-28T00:54:09;12.00;;;6.07;;
9479;SDS011;4778;44.510;11.378;2023-02-28T00:56:35;10.63;;;6.63;;
9479;SDS011;4778;44.510;11.378;2023-02-28T00:59:01;12.68;;;6.57;;
9479;SDS011;4778;44.510;11.378;2023-02-28T01:01:27;9.77;;;6.20;;
9479;SDS011;4778;44.510;11.378;2023-02-28T01:03:53;6.90;;;5.63;;
9479;SDS011;4778;44.510;11.378;2023-02-28T01:06:19;8.85;;;6.20;;
9479;SDS011;4778;44.510;11.378;2023-02-28T01:08:45;9.45;;;5.88;;
9479;SDS011;4778;44.510;11.378;2023-02-28T01:11:12;8.05;;;5.90;;
9479;SDS011;4778;44.510;11.378;2023-02-28T01:13:38;10.27;;;6.32;;
9479;SDS011;4778;44.510;11.378;2023-02-28T01:16:05;9.85;;;6.22;;
9479;SDS011;4778;44.510;11.378;2023-02-28T01:18:31;9.65;;;6.05;;
9479;SDS011;4778;44.510;11.378;2023-02-28T01:20:57;8.48;;;5.97;;
9479;SDS011;4778;44.510;11.378;2023-02-28T01:23:23;10.38;;;7.55;;
9479;SDS011;4778;44.510;11.378;2023-02-28T01:25:50;9.98;;;6.32;;
9479;SDS011;4778;44.510;11.378;2023-02-28T01:28:16;10.17;;;6.70;;
9479;SDS011;4778;44.510;11.378;2023-02-28T01:30:42;10.90;;;6.03;;
9479;SDS011;4778;44.510;11.378;2023-02-28T01:33:08;8.48;;;6.07;;
9479;SDS011;4778;44.510;11.378;2023-02-28T01:35:35;10.88;;;6.18;;
9479;SDS011;4778;44.510;11.378;2023-02-28T01:38:01;8.20;;;6.22;;
9479;SDS011;4778;44.510;11.378;2023-02-28T01:40:27;10.02;;;6.18;;
9479;SDS011;4778;44.510;11.378;2023-02-28T01:42:53;9.00;;;5.95;;
9479;SDS011;4778;44.510;11.378;2023-02-28T01:45:27;7.22;;;5.72;;
9479;SDS011;4778;44.510;11.378;2023-02-28T01:47:55;9.10;;;5.90;;
9479;SDS011;4778;44.510;11.378;2023-02-28T01:50:25;14.15;;;6.65;;
9479;SDS011;4778;44.510;11.378;2023-02-28T01:52:52;9.27;;;6.15;;
9479;SDS011;4778;44.510;11.378;2023-02-28T01:55:20;9.98;;;6.25;;
9479;SDS011;4778;44.510;11.378;2023-02-28T01:57:52;10.80;;;6.20;;
9479;SDS011;4778;44.510;11.378;2023-02-28T02:00:20;8.93;;;6.45;;
9479;SDS011;4778;44.510;11.378;2023-02-28T02:02:49;11.37;;;6.03;;
9479;SDS011;4778;44.510;11.378;2023-02-28T02:05:17;9.30;;;5.75;;
9479;SDS011;4778;44.510;11.378;2023-02-28T02:07:44;8.85;;;5.97;;
9479;SDS011;4778;44.510;11.378;2023-02-28T02:10:12;10.25;;;6.53;;
9479;SDS011;4778;44.510;11.378;2023-02-28T02:15:36;8.88;;;6.20;;
9479;SDS011;4778;44.510;11.378;2023-02-28T02:18:12;8.63;;;6.28;;
9479;SDS011;4778;44.510;11.378;2023-02-28T02:25:42;10.57;;;6.18;;
9479;SDS011;4778;44.510;11.378;2023-02-28T02:36:01;9.35;;;6.55;;
9479;SDS011;4778;44.510;11.378;2023-02-28T02:38:50;10.82;;;6.18;;
9479;SDS011;4778;44.510;11.378;2023-02-28T02:44:03;8.27;;;5.95;;
9479;SDS011;4778;44.510;11.378;2023-02-28T02:46:34;8.20;;;6.17;;
9479;SDS011;4778;44.510;11.378;2023-02-28T02:49:04;8.52;;;5.97;;
9479;SDS011;4778;44.510;11.378;2023-02-28T02:51:32;9.23;;;6.97;;
9479;SDS011;4778;44.510;11.378;2023-02-28T02:56:28;10.07;;;7.03;;
9479;SDS011;4778;44.510;11.378;2023-02-28T02:58:56;11.02;;;6.72;;
9479;SDS011;4778;44.510;11.378;2023-02-28T03:01:23;8.00;;;6.55;;
9479;SDS011;4778;44.510;11.378;2023-02-28T03:04:04;9.13;;;6.85;;
9479;SDS011;4778;44.510;11.378;2023-02-28T03:06:31;9.23;;;6.68;;
9479;SDS011;4778;44.510;11.378;2023-02-28T03:08:57;9.50;;;6.95;;
9479;SDS011;4778;44.510;11.378;2023-02-28T03:11:23;9.00;;;6.68;;
9479;SDS011;4778;44.510;11.378;2023-02-28T03:21:36;8.05;;;5.95;;
9479;SDS011;4778;44.510;11.378;2023-02-28T03:24:08;10.30;;;6.97;;
9479;SDS011;4778;44.510;11.378;2023-02-28T03:26:38;10.10;;;6.38;;
9479;SDS011;4778;44.510;11.378;2023-02-28T03:29:51;9.27;;;6.40;;
9479;SDS011;4778;44.510;11.378;2023-02-28T03:31:58;8.63;;;6.00;;
9479;SDS011;4778;44.510;11.378;2023-02-28T03:34:34;8.85;;;6.50;;
9479;SDS011;4778;44.510;11.378;2023-02-28T03:37:07;9.80;;;6.32;;
9479;SDS011;4778;44.510;11.378;2023-02-28T03:40:10;9.23;;;6.50;;
9479;SDS011;4778;44.510;11.378;2023-02-28T03:42:29;7.40;;;6.00;;
9479;SDS011;4778;44.510;11.378;2023-02-28T03:44:57;10.40;;;6.82;;
9479;SDS011;4778;44.510;11.378;2023-02-28T03:47:27;10.00;;;6.78;;
9479;SDS011;4778;44.510;11.378;2023-02-28T03:50:14;9.90;;;6.47;;
9479;SDS011;4778;44.510;11.378;2023-02-28T03:52:46;7.78;;;6.40;;
9479;SDS011;4778;44.510;11.378;2023-02-28T03:55:14;16.35;;;14.73;;
9479;SDS011;4778;44.510;11.378;2023-02-28T03:57:44;11.07;;;7.17;;
9479;SDS011;4778;44.510;11.378;2023-02-28T04:00:14;11.88;;;7.55;;
9479;SDS011;4778;44.510;11.378;2023-02-28T04:02:41;9.38;;;6.68;;
9479;SDS011;4778;44.510;11.378;2023-02-28T04:05:08;9.33;;;6.40;;
9479;SDS011;4778;44.510;11.378;2023-02-28T04:07:34;7.25;;;6.43;;
9479;SDS011;4778;44.510;11.378;2023-02-28T04:10:00;9.20;;;6.60;;
9479;SDS011;4778;44.510;11.378;2023-02-28T04:12:26;9.15;;;6.50;;
9479;SDS011;4778;44.510;11.378;2023-02-28T04:14:52;9.20;;;6.60;;
9479;SDS011;4778;44.510;11.378;2023-02-28T04:17:18;10.23;;;6.60;;
9479;SDS011;4778;44.510;11.378;2023-02-28T04:19:44;8.77;;;6.37;;
9479;SDS011;4778;44.510;11.378;2023-02-28T04:22:11;13.10;;;6.53;;
9479;SDS011;4778;44.510;11.378;2023-02-28T04:24:37;8.13;;;6.70;;
9479;SDS011;4778;44.510;11.378;2023-02-28T04:27:06;9.35;;;5.93;;
9479;SDS011;4778;44.510;11.378;2023-02-28T04:29:32;8.30;;;6.38;;
9479;SDS011;4778;44.510;11.378;2023-02-28T04:31:59;7.70;;;5.70;;
9479;SDS011;4778;44.510;11.378;2023-02-28T04:34:26;7.77;;;6.53;;
9479;SDS011;4778;44.510;11.378;2023-02-28T04:36:52;8.05;;;5.70;;
9479;SDS011;4778;44.510;11.378;2023-02-28T04:39:20;10.30;;;6.03;;
9479;SDS011;4778;44.510;11.378;2023-02-28T04:41:46;10.00;;;6.33;;
9479;SDS011;4778;44.510;11.378;2023-02-28T04:44:13;10.40;;;6.47;;
9479;SDS011;4778;44.510;11.378;2023-02-28T04:46:39;9.20;;;6.25;;
9479;SDS011;4778;44.510;11.378;2023-02-28T04:49:05;7.60;;;6.03;;
9479;SDS011;4778;44.510;11.378;2023-02-28T04:51:31;8.68;;;6.55;;
9479;SDS011;4778;44.510;11.378;2023-02-28T04:53:57;9.75;;;6.68;;
9479;SDS011;4778;44.510;11.378;2023-02-28T04:56:24;9.70;;;6.30;;
9479;SDS011;4778;44.510;11.378;2023-02-28T04:58:50;7.65;;;6.22;;
9479;SDS011;4778;44.510;11.378;2023-02-28T05:03:44;9.00;;;6.68;;
9479;SDS011;4778;44.510;11.378;2023-02-28T05:06:10;12.10;;;6.28;;
9479;SDS011;4778;44.510;11.378;2023-02-28T05:08:37;9.68;;;6.78;;
9479;SDS011;4778;44.510;11.378;2023-02-28T05:11:03;9.23;;;6.55;;
9479;SDS011;4778;44.510;11.378;2023-02-28T05:13:29;9.30;;;7.20;;
9479;SDS011;4778;44.510;11.378;2023-02-28T05:15:56;9.48;;;7.00;;
9479;SDS011;4778;44.510;11.378;2023-02-28T05:18:22;10.23;;;7.13;;
9479;SDS011;4778;44.510;11.378;2023-02-28T05:20:48;11.10;;;6.88;;
9479;SDS011;4778;44.510;11.378;2023-02-28T05:23:14;8.43;;;6.60;;
9479;SDS011;4778;44.510;11.378;2023-02-28T05:25:41;8.52;;;6.43;;
9479;SDS011;4778;44.510;11.378;2023-02-28T05:28:07;8.77;;;6.32;;
9479;SDS011;4778;44.510;11.378;2023-02-28T05:30:33;10.45;;;6.65;;
9479;SDS011;4778;44.510;11.378;2023-02-28T05:33:00;10.02;;;6.90;;
9479;SDS011;4778;44.510;11.378;2023-02-28T05:35:26;9.55;;;6.97;;
9479;SDS011;4778;44.510;11.378;2023-02-28T05:37:52;11.02;;;6.72;;
9479;SDS011;4778;44.510;11.378;2023-02-28T05:40:18;9.13;;;6.43;;
9479;SDS011;4778;44.510;11.378;2023-02-28T05:42:45;8.68;;;6.53;;
9479;SDS011;4778;44.510;11.378;2023-02-28T05:45:11;9.45;;;6.75;;
9479;SDS011;4778;44.510;11.378;2023-02-28T05:47:37;11.20;;;6.97;;
9479;SDS011;4778;44.510;11.378;2023-02-28T05:50:04;8.75;;;6.75;;
9479;SDS011;4778;44.510;11.378;2023-02-28T05:52:30;8.77;;;7.32;;
9479;SDS011;4778;44.510;11.378;2023-02-28T05:54:57;9.30;;;7.28;;
9479;SDS011;4778;44.510;11.378;2023-02-28T05:57:23;9.73;;;6.97;;
9479;SDS011;4778;44.510;11.378;2023-02-28T05:59:49;9.48;;;6.93;;
9479;SDS011;4778;44.510;11.378;2023-02-28T06:02:16;9.52;;;7.03;;
9479;SDS011;4778;44.510;11.378;2023-02-28T06:04:42;8.93;;;6.68;;
9479;SDS011;4778;44.510;11.378;2023-02-28T06:07:09;8.07;;;6.75;;
9479;SDS011;4778;44.510;11.378;2023-02-28T06:09:35;10.65;;;7.53;;
9479;SDS011;4778;44.510;11.378;2023-02-28T06:12:02;9.60;;;6.95;;
9479;SDS011;4778;44.510;11.378;2023-02-28T06:14:30;9.82;;;7.15;;
9479;SDS011;4778;44.510;11.378;2023-02-28T06:16:57;8.93;;;7.30;;
9479;SDS011;4778;44.510;11.378;2023-02-28T06:19:23;10.40;;;7.80;;
9479;SDS011;4778;44.510;11.378;2023-02-28T06:21:54;10.48;;;8.05;;
9479;SDS011;4778;44.510;11.378;2023-02-28T06:24:22;10.00;;;7.63;;
9479;SDS011;4778;44.510;11.378;2023-02-28T06:26:48;10.70;;;7.97;;
9479;SDS011;4778;44.510;11.378;2023-02-28T06:29:14;9.32;;;7.13;;
9479;SDS011;4778;44.510;11.378;2023-02-28T06:31:42;10.38;;;7.00;;
9479;SDS011;4778;44.510;11.378;2023-02-28T06:34:11;9.88;;;7.43;;
9479;SDS011;4778;44.510;11.378;2023-02-28T06:36:38;11.33;;;7.87;;
9479;SDS011;4778;44.510;11.378;2023-02-28T06:39:05;10.60;;;7.63;;
9479;SDS011;4778;44.510;11.378;2023-02-28T06:41:31;10.30;;;7.70;;
9479;SDS011;4778;44.510;11.378;2023-02-28T06:44:10;10.20;;;7.82;;
9479;SDS011;4778;44.510;11.378;2023-02-28T06:46:38;10.80;;;7.97;;
9479;SDS011;4778;44.510;11.378;2023-02-28T06:49:04;9.63;;;7.57;;
9479;SDS011;4778;44.510;11.378;2023-02-28T06:51:34;10.18;;;8.00;;
9479;SDS011;4778;44.510;11.378;2023-02-28T06:54:01;11.20;;;8.02;;
9479;SDS011;4778;44.510;11.378;2023-02-28T06:56:27;11.73;;;8.00;;
9479;SDS011;4778;44.510;11.378;2023-02-28T06:58:53;10.00;;;8.45;;
9479;SDS011;4778;44.510;11.378;2023-02-28T07:01:19;11.25;;;8.25;;
9479;SDS011;4778;44.510;11.378;2023-02-28T07:03:47;12.57;;;7.60;;
9479;SDS011;4778;44.510;11.378;2023-02-28T07:06:17;9.93;;;7.72;;
9479;SDS011;4778;44.510;11.378;2023-02-28T07:08:43;11.65;;;7.90;;
9479;SDS011;4778;44.510;11.378;2023-02-28T07:11:09;10.85;;;8.32;;
9479;SDS011;4778;44.510;11.378;2023-02-28T07:13:36;11.57;;;8.45;;
9479;SDS011;4778;44.510;11.378;2023-02-28T07:16:06;9.93;;;7.90;;
9479;SDS011;4778;44.510;11.378;2023-02-28T07:18:33;11.32;;;8.13;;
9479;SDS011;4778;44.510;11.378;2023-02-28T07:21:03;10.10;;;8.60;;
9479;SDS011;4778;44.510;11.378;2023-02-28T07:23:30;10.30;;;8.20;;
9479;SDS011;4778;44.510;11.378;2023-02-28T07:25:56;15.38;;;9.15;;
9479;SDS011;4778;44.510;11.378;2023-02-28T07:28:22;11.90;;;8.93;;
9479;SDS011;4778;44.510;11.378;2023-02-28T07:33:23;12.38;;;8.60;;
9479;SDS011;4778;44.510;11.378;2023-02-28T07:35:49;11.25;;;8.27;;
9479;SDS011;4778;44.510;11.378;2023-02-28T07:38:15;11.20;;;9.00;;
9479;SDS011;4778;44.510;11.378;2023-02-28T07:40:42;12.45;;;8.63;;
9479;SDS011;4778;44.510;11.378;2023-02-28T07:43:08;9.95;;;8.35;;
9479;SDS011;4778;44.510;11.378;2023-02-28T07:45:34;11.80;;;8.40;;
9479;SDS011;4778;44.510;11.378;2023-02-28T07:48:00;12.32;;;9.52;;
9479;SDS011;4778;44.510;11.378;2023-02-28T07:50:26;10.75;;;8.23;;
9479;SDS011;4778;44.510;11.378;2023-02-28T07:52:56;12.75;;;8.77;;
9479;SDS011;4778;44.510;11.378;2023-02-28T07:55:22;11.40;;;8.18;;
9479;SDS011;4778;44.510;11.378;2023-02-28T07:57:48;10.38;;;8.75;;
9479;SDS011;4778;44.510;11.378;2023-02-28T08:00:14;13.98;;;9.18;;
9479;SDS011;4778;44.510;11.378;2023-02-28T08:02:41;10.15;;;8.40;;
9479;SDS011;4778;44.510;11.378;2023-02-28T08:05:07;10.88;;;8.40;;
9479;SDS011;4778;44.510;11.378;2023-02-28T08:07:34;9.93;;;8.27;;
9479;SDS011;4778;44.510;11.378;2023-02-28T08:10:00;11.02;;;8.75;;
9479;SDS011;4778;44.510;11.378;2023-02-28T08:12:26;13.30;;;8.63;;
9479;SDS011;4778;44.510;11.378;2023-02-28T08:14:52;13.18;;;9.10;;
9479;SDS011;4778;44.510;11.378;2023-02-28T08:17:18;11.80;;;8.63;;
9479;SDS011;4778;44.510;11.378;2023-02-28T08:19:45;10.70;;;8.45;;
9479;SDS011;4778;44.510;11.378;2023-02-28T08:24:44;13.27;;;8.73;;
9479;SDS011;4778;44.510;11.378;2023-02-28T08:27:10;9.77;;;7.82;;
9479;SDS011;4778;44.510;11.378;2023-02-28T08:29:37;10.60;;;8.43;;
9479;SDS011;4778;44.510;11.378;2023-02-28T08:32:03;11.45;;;8.05;;
9479;SDS011;4778;44.510;11.378;2023-02-28T08:34:30;12.52;;;8.70;;
9479;SDS011;4778;44.510;11.378;2023-02-28T08:36:56;10.65;;;8.77;;
9479;SDS011;4778;44.510;11.378;2023-02-28T08:39:22;11.38;;;8.73;;
9479;SDS011;4778;44.510;11.378;2023-02-28T08:41:48;12.25;;;9.00;;
9479;SDS011;4778;44.510;11.378;2023-02-28T08:44:14;11.65;;;8.95;;
9479;SDS011;4778;44.510;11.378;2023-02-28T08:46:40;14.02;;;10.00;;
9479;SDS011;4778;44.510;11.378;2023-02-28T08:49:06;10.97;;;8.87;;
9479;SDS011;4778;44.510;11.378;2023-02-28T08:51:34;12.05;;;9.80;;
9479;SDS011;4778;44.510;11.378;2023-02-28T08:54:00;12.02;;;9.00;;
9479;SDS011;4778;44.510;11.378;2023-02-28T08:56:27;14.25;;;9.30;;
9479;SDS011;4778;44.510;11.378;2023-02-28T08:58:54;11.65;;;9.23;;
9479;SDS011;4778;44.510;11.378;2023-02-28T09:01:25;10.60;;;8.60;;
9479;SDS011;4778;44.510;11.378;2023-02-28T09:03:52;13.15;;;9.18;;
9479;SDS011;4778;44.510;11.378;2023-02-28T09:06:19;13.20;;;9.43;;
9479;SDS011;4778;44.510;11.378;2023-02-28T09:08:45;12.18;;;9.40;;
9479;SDS011;4778;44.510;11.378;2023-02-28T09:11:11;14.05;;;9.30;;
9479;SDS011;4778;44.510;11.378;2023-02-28T09:13:38;9.77;;;8.73;;
9479;SDS011;4778;44.510;11.378;2023-02-28T09:16:05;13.00;;;9.10;;
9479;SDS011;4778;44.510;11.378;2023-02-28T09:18:33;11.63;;;9.07;;
9479;SDS011;4778;44.510;11.378;2023-02-28T09:20:59;11.10;;;8.57;;
9479;SDS011;4778;44.510;11.378;2023-02-28T09:23:25;11.40;;;8.88;;
9479;SDS011;4778;44.510;11.378;2023-02-28T09:25:52;11.57;;;8.65;;
9479;SDS011;4778;44.510;11.378;2023-02-28T09:28:19;11.57;;;8.73;;
9479;SDS011;4778;44.510;11.378;2023-02-28T09:30:46;13.48;;;9.73;;
9479;SDS011;4778;44.510;11.378;2023-02-28T09:33:13;13.30;;;9.13;;
9479;SDS011;4778;44.510;11.378;2023-02-28T09:35:39;10.38;;;8.10;;
9479;SDS011;4778;44.510;11.378;2023-02-28T09:38:05;11.85;;;9.10;;
9479;SDS011;4778;44.510;11.378;2023-02-28T09:40:34;11.82;;;8.75;;
9479;SDS011;4778;44.510;11.378;2023-02-28T09:43:01;13.07;;;8.95;;
9479;SDS011;4778;44.510;11.378;2023-02-28T09:47:54;14.03;;;9.70;;
9479;SDS011;4778;44.510;11.378;2023-02-28T09:50:40;12.47;;;9.13;;
9479;SDS011;4778;44.510;11.378;2023-02-28T09:53:26;14.13;;;9.45;;
9479;SDS011;4778;44.510;11.378;2023-02-28T09:55:58;12.77;;;9.95;;
9479;SDS011;4778;44.510;11.378;2023-02-28T10:01:06;14.45;;;9.82;;
9479;SDS011;4778;44.510;11.378;2023-02-28T10:11:16;12.02;;;8.98;;
9479;SDS011;4778;44.510;11.378;2023-02-28T10:16:16;9.98;;;8.82;;
9479;SDS011;4778;44.510;11.378;2023-02-28T10:19:20;13.32;;;9.20;;
9479;SDS011;4778;44.510;11.378;2023-02-28T10:21:47;12.40;;;9.48;;
9479;SDS011;4778;44.510;11.378;2023-02-28T10:24:35;13.30;;;9.48;;
9479;SDS011;4778;44.510;11.378;2023-02-28T10:27:20;15.02;;;9.40;;
9479;SDS011;4778;44.510;11.378;2023-02-28T10:29:50;13.52;;;9.13;;
9479;SDS011;4778;44.510;11.378;2023-02-28T10:32:17;13.23;;;9.03;;
9479;SDS011;4778;44.510;11.378;2023-02-28T10:34:44;14.60;;;9.00;;
9479;SDS011;4778;44.510;11.378;2023-02-28T10:37:16;11.38;;;9.35;;
9479;SDS011;4778;44.510;11.378;2023-02-28T10:39:44;10.85;;;9.20;;
9479;SDS011;4778;44.510;11.378;2023-02-28T10:44:45;12.83;;;9.10;;
9479;SDS011;4778;44.510;11.378;2023-02-28T10:47:17;11.48;;;8.90;;
9479;SDS011;4778;44.510;11.378;2023-02-28T10:49:48;12.77;;;9.35;;
9479;SDS011;4778;44.510;11.378;2023-02-28T10:52:32;11.38;;;9.05;;
9479;SDS011;4778;44.510;11.378;2023-02-28T10:58:00;11.88;;;9.52;;
9479;SDS011;4778;44.510;11.378;2023-02-28T11:00:31;12.00;;;9.57;;
9479;SDS011;4778;44.510;11.378;2023-02-28T11:02:58;13.07;;;9.27;;
9479;SDS011;4778;44.510;11.378;2023-02-28T11:05:25;11.52;;;8.50;;
9479;SDS011;4778;44.510;11.378;2023-02-28T11:07:52;11.75;;;9.13;;
9479;SDS011;4778;44.510;11.378;2023-02-28T11:10:19;12.93;;;9.07;;
9479;SDS011;4778;44.510;11.378;2023-02-28T11:12:46;14.10;;;9.50;;
9479;SDS011;4778;44.510;11.378;2023-02-28T11:20:30;10.73;;;9.07;;
9479;SDS011;4778;44.510;11.378;2023-02-28T11:22:58;13.52;;;9.70;;
9479;SDS011;4778;44.510;11.378;2023-02-28T11:25:26;11.55;;;9.48;;
9479;SDS011;4778;44.510;11.378;2023-02-28T11:27:56;13.63;;;9.50;;
9479;SDS011;4778;44.510;11.378;2023-02-28T11:32:52;12.60;;;9.60;;
9479;SDS011;4778;44.510;11.378;2023-02-28T11:35:40;11.77;;;9.70;;
9479;SDS011;4778;44.510;11.378;2023-02-28T11:38:07;13.23;;;9.30;;
9479;SDS011;4778;44.510;11.378;2023-02-28T11:43:04;13.75;;;9.55;;
9479;SDS011;4778;44.510;11.378;2023-02-28T11:45:40;13.27;;;9.73;;
9479;SDS011;4778;44.510;11.378;2023-02-28T11:56:14;15.07;;;9.88;;
9479;SDS011;4778;44.510;11.378;2023-02-28T12:04:29;11.77;;;9.23;;
9479;SDS011;4778;44.510;11.378;2023-02-28T12:24:59;12.02;;;9.35;;
9479;SDS011;4778;44.510;11.378;2023-02-28T12:27:29;12.50;;;9.20;;
9479;SDS011;4778;44.510;11.378;2023-02-28T12:30:12;13.10;;;9.00;;
9479;SDS011;4778;44.510;11.378;2023-02-28T12:32:41;15.63;;;9.45;;
9479;SDS011;4778;44.510;11.378;2023-02-28T12:40:06;13.52;;;9.68;;
9479;SDS011;4778;44.510;11.378;2023-02-28T12:42:55;11.18;;;8.57;;
9479;SDS011;4778;44.510;11.378;2023-02-28T12:45:39;9.90;;;8.50;;
9479;SDS011;4778;44.510;11.378;2023-02-28T12:48:06;10.43;;;9.02;;
9479;SDS011;4778;44.510;11.378;2023-02-28T12:50:35;12.63;;;9.23;;
9479;SDS011;4778;44.510;11.378;2023-02-28T12:53:14;11.27;;;8.55;;
9479;SDS011;4778;44.510;11.378;2023-02-28T13:03:40;13.57;;;9.23;;
9479;SDS011;4778;44.510;11.378;2023-02-28T13:06:22;12.23;;;8.90;;
9479;SDS011;4778;44.510;11.378;2023-02-28T13:11:24;11.73;;;8.88;;
9479;SDS011;4778;44.510;11.378;2023-02-28T13:13:56;12.88;;;9.32;;
9479;SDS011;4778;44.510;11.378;2023-02-28T13:16:23;12.00;;;8.55;;
9479;SDS011;4778;44.510;11.378;2023-02-28T13:18:49;11.57;;;9.25;;
9479;SDS011;4778;44.510;11.378;2023-02-28T13:29:00;11.40;;;8.50;;
9479;SDS011;4778;44.510;11.378;2023-02-28T13:31:27;11.55;;;8.30;;
9479;SDS011;4778;44.510;11.378;2023-02-28T13:36:24;10.95;;;8.90;;
9479;SDS011;4778;44.510;11.378;2023-02-28T13:38:58;13.38;;;8.85;;
9479;SDS011;4778;44.510;11.378;2023-02-28T13:44:02;11.73;;;8.95;;
9479;SDS011;4778;44.510;11.378;2023-02-28T13:46:29;12.15;;;9.10;;
9479;SDS011;4778;44.510;11.378;2023-02-28T13:48:55;12.35;;;8.75;;
9479;SDS011;4778;44.510;11.378;2023-02-28T13:54:11;14.13;;;9.57;;
9479;SDS011;4778;44.510;11.378;2023-02-28T13:56:45;12.65;;;9.23;;
9479;SDS011;4778;44.510;11.378;2023-02-28T13:59:37;14.07;;;9.93;;
9479;SDS011;4778;44.510;11.378;2023-02-28T14:06:55;13.63;;;9.77;;
9479;SDS011;4778;44.510;11.378;2023-02-28T14:09:29;14.52;;;10.57;;
9479;SDS011;4778;44.510;11.378;2023-02-28T14:11:57;12.20;;;9.88;;
9479;SDS011;4778;44.510;11.378;2023-02-28T14:16:59;15.32;;;10.43;;
9479;SDS011;4778;44.510;11.378;2023-02-28T14:19:26;13.93;;;10.15;;
9479;SDS011;4778;44.510;11.378;2023-02-28T14:27:29;13.90;;;10.77;;
9479;SDS011;4778;44.510;11.378;2023-02-28T14:30:12;13.00;;;10.05;;
9479;SDS011;4778;44.510;11.378;2023-02-28T14:32:44;14.13;;;10.73;;
9479;SDS011;4778;44.510;11.378;2023-02-28T14:37:56;14.93;;;10.43;;
9479;SDS011;4778;44.510;11.378;2023-02-28T14:42:55;11.45;;;10.02;;
9479;SDS011;4778;44.510;11.378;2023-02-28T14:45:21;14.40;;;10.70;;
9479;SDS011;4778;44.510;11.378;2023-02-28T14:47:51;14.05;;;10.55;;
9479;SDS011;4778;44.510;11.378;2023-02-28T14:50:24;14.55;;;10.32;;
9479;SDS011;4778;44.510;11.378;2023-02-28T14:52:52;13.60;;;10.68;;
9479;SDS011;4778;44.510;11.378;2023-02-28T14:55:20;16.08;;;11.38;;
9479;SDS011;4778;44.510;11.378;2023-02-28T14:57:52;18.02;;;11.23;;
9479;SDS011;4778;44.510;11.378;2023-02-28T15:00:24;16.17;;;10.98;;
9479;SDS011;4778;44.510;11.378;2023-02-28T15:02:50;17.02;;;11.32;;
9479;SDS011;4778;44.510;11.378;2023-02-28T15:05:28;14.40;;;10.70;;
9479;SDS011;4778;44.510;11.378;2023-02-28T15:08:12;15.70;;;10.35;;
9479;SDS011;4778;44.510;11.378;2023-02-28T15:10:39;15.23;;;11.30;;
9479;SDS011;4778;44.510;11.378;2023-02-28T15:13:07;17.27;;;11.67;;
9479;SDS011;4778;44.510;11.378;2023-02-28T15:18:17;24.00;;;12.57;;
9479;SDS011;4778;44.510;11.378;2023-02-28T15:20:44;51.47;;;16.92;;
9479;SDS011;4778;44.510;11.378;2023-02-28T15:23:10;61.33;;;15.93;;
9479;SDS011;4778;44.510;11.378;2023-02-28T15:25:37;39.00;;;13.50;;
9479;SDS011;4778;44.510;11.378;2023-02-28T15:28:03;16.40;;;11.43;;
9479;SDS011;4778;44.510;11.378;2023-02-28T15:30:30;58.73;;;16.17;;
9479;SDS011;4778;44.510;11.378;2023-02-28T15:35:39;37.47;;;14.20;;
9479;SDS011;4778;44.510;11.378;2023-02-28T15:40:44;55.47;;;15.63;;
9479;SDS011;4778;44.510;11.378;2023-02-28T15:43:18;28.40;;;13.82;;
9479;SDS011;4778;44.510;11.378;2023-02-28T15:45:45;35.38;;;15.05;;
9479;SDS011;4778;44.510;11.378;2023-02-28T15:50:40;17.73;;;12.77;;
9479;SDS011;4778;44.510;11.378;2023-02-28T15:53:13;23.90;;;13.23;;
9479;SDS011;4778;44.510;11.378;2023-02-28T15:55:41;20.03;;;13.67;;
9479;SDS011;4778;44.510;11.378;2023-02-28T15:58:08;19.90;;;13.40;;
9479;SDS011;4778;44.510;11.378;2023-02-28T16:00:36;18.17;;;14.05;;
9479;SDS011;4778;44.510;11.378;2023-02-28T16:03:22;17.35;;;14.13;;
9479;SDS011;4778;44.510;11.378;2023-02-28T16:06:06;18.70;;;14.32;;
9479;SDS011;4778;44.510;11.378;2023-02-28T16:08:32;17.63;;;13.63;;
9479;SDS011;4778;44.510;11.378;2023-02-28T16:10:58;19.10;;;14.45;;
9479;SDS011;4778;44.510;11.378;2023-02-28T16:13:24;18.00;;;13.75;;
9479;SDS011;4778;44.510;11.378;2023-02-28T16:15:50;19.37;;;14.60;;
9479;SDS011;4778;44.510;11.378;2023-02-28T16:18:16;18.25;;;13.98;;
9479;SDS011;4778;44.510;11.378;2023-02-28T16:20:42;18.05;;;14.65;;
9479;SDS011;4778;44.510;11.378;2023-02-28T16:23:09;19.35;;;14.55;;
9479;SDS011;4778;44.510;11.378;2023-02-28T16:25:36;18.00;;;14.55;;
9479;SDS011;4778;44.510;11.378;2023-02-28T16:28:02;20.52;;;14.65;;
9479;SDS011;4778;44.510;11.378;2023-02-28T16:30:29;19.70;;;15.15;;
9479;SDS011;4778;44.510;11.378;2023-02-28T16:32:58;19.53;;;14.27;;
9479;SDS011;4778;44.510;11.378;2023-02-28T16:35:25;20.38;;;14.98;;
9479;SDS011;4778;44.510;11.378;2023-02-28T16:37:51;20.50;;;15.80;;
9479;SDS011;4778;44.510;11.378;2023-02-28T16:40:22;19.33;;;15.50;;
9479;SDS011;4778;44.510;11.378;2023-02-28T16:42:48;20.42;;;15.48;;
9479;SDS011;4778;44.510;11.378;2023-02-28T16:45:16;22.37;;;14.70;;
9479;SDS011;4778;44.510;11.378;2023-02-28T16:47:44;18.33;;;14.90;;
9479;SDS011;4778;44.510;11.378;2023-02-28T16:50:20;18.65;;;15.23;;
9479;SDS011;4778;44.510;11.378;2023-02-28T16:52:46;20.77;;;16.33;;
9479;SDS011;4778;44.510;11.378;2023-02-28T16:55:14;20.95;;;16.17;;
9479;SDS011;4778;44.510;11.378;2023-02-28T16:57:40;18.40;;;15.27;;
9479;SDS011;4778;44.510;11.378;2023-02-28T17:00:07;21.83;;;15.68;;
9479;SDS011;4778;44.510;11.378;2023-02-28T17:02:34;20.50;;;15.23;;
9479;SDS011;4778;44.510;11.378;2023-02-28T17:05:00;22.13;;;16.02;;
9479;SDS011;4778;44.510;11.378;2023-02-28T17:07:26;20.90;;;15.38;;
9479;SDS011;4778;44.510;11.378;2023-02-28T17:09:52;19.93;;;15.53;;
9479;SDS011;4778;44.510;11.378;2023-02-28T17:12:18;19.95;;;15.60;;
9479;SDS011;4778;44.510;11.378;2023-02-28T17:14:44;26.20;;;16.73;;
9479;SDS011;4778;44.510;11.378;2023-02-28T17:17:17;20.00;;;15.57;;
9479;SDS011;4778;44.510;11.378;2023-02-28T17:19:43;20.17;;;15.38;;
9479;SDS011;4778;44.510;11.378;2023-02-28T17:22:09;22.08;;;16.52;;
9479;SDS011;4778;44.510;11.378;2023-02-28T17:24:36;21.95;;;16.83;;
9479;SDS011;4778;44.510;11.378;2023-02-28T17:27:02;21.60;;;15.97;;
9479;SDS011;4778;44.510;11.378;2023-02-28T17:29:28;24.15;;;16.77;;
9479;SDS011;4778;44.510;11.378;2023-02-28T17:31:54;20.80;;;16.37;;
9479;SDS011;4778;44.510;11.378;2023-02-28T17:34:21;21.17;;;15.68;;